createdAt,value
2018-11-12T00:00:36.847Z,8.52
2018-11-12T00:01:46.946Z,8.5
2018-11-12T00:02:56.540Z,8.58
2018-11-12T00:04:06.915Z,8.58
2018-11-12T00:05:17.019Z,8.58
2018-11-12T00:06:26.834Z,8.57
2018-11-12T00:07:36.633Z,8.6
2018-11-12T00:08:46.178Z,8.58
2018-11-12T00:09:56.025Z,8.61
2018-11-12T00:11:08.789Z,8.62
2018-11-12T00:12:18.594Z,8.65
2018-11-12T00:13:28.179Z,8.64
2018-11-12T00:14:38.033Z,8.64
2018-11-12T00:15:48.091Z,8.72
2018-11-12T00:16:58.172Z,8.62
2018-11-12T00:18:08.261Z,8.64
2018-11-12T00:19:18.336Z,8.62
2018-11-12T00:20:28.449Z,8.58
2018-11-12T00:21:38.268Z,8.6
2018-11-12T00:22:48.144Z,8.61
2018-11-12T00:23:58.208Z,8.61
2018-11-12T00:25:08.351Z,8.57
2018-11-12T00:26:18.453Z,8.43
2018-11-12T00:27:28.265Z,8.46
2018-11-12T00:28:38.068Z,8.5
2018-11-12T00:29:48.129Z,8.44
2018-11-12T00:30:58.208Z,8.34
2018-11-12T00:32:08.058Z,8.39
2018-11-12T00:33:18.119Z,8.39
2018-11-12T00:34:27.643Z,8.32
2018-11-12T00:35:37.735Z,8.36
2018-11-12T00:36:47.596Z,8.36
2018-11-12T00:37:57.403Z,8.39
2018-11-12T00:39:07.481Z,8.31
2018-11-12T00:40:17.536Z,8.25
2018-11-12T00:41:27.376Z,8.24
2018-11-12T00:42:37.476Z,8.19
2018-11-12T00:43:47.276Z,8.13
2018-11-12T00:44:57.080Z,8.29
2018-11-12T00:46:06.635Z,8.13
2018-11-12T00:47:16.489Z,8.24
2018-11-12T00:48:26.296Z,8.17
2018-11-12T00:49:36.380Z,8.13
2018-11-12T00:50:46.484Z,8.13
2018-11-12T00:51:56.275Z,8.13
2018-11-12T00:53:05.862Z,8.19
2018-11-12T00:54:15.912Z,8.04
2018-11-12T00:55:25.826Z,8.16
2018-11-12T00:56:36.204Z,8.06
2018-11-12T00:57:46.256Z,8.04
2018-11-12T00:58:55.804Z,8.01
2018-11-12T01:00:05.681Z,8.01
2018-11-12T01:01:15.249Z,8.1
2018-11-12T01:02:25.313Z,8.03
2018-11-12T01:03:35.137Z,7.96
2018-11-12T01:04:45.250Z,8.01
2018-11-12T01:05:55.119Z,8.01
2018-11-12T01:07:07.000Z,8.09
2018-11-12T01:08:17.060Z,8.03
2018-11-12T01:09:26.875Z,8.01
2018-11-12T01:10:36.674Z,8.06
2018-11-12T01:11:46.228Z,8.01
2018-11-12T01:12:56.054Z,8.06
2018-11-12T01:14:06.177Z,8.01
2018-11-12T01:15:16.265Z,8.01
2018-11-12T01:16:26.360Z,7.98
2018-11-12T01:17:36.147Z,8.01
2018-11-12T01:18:45.685Z,7.93
2018-11-12T01:19:55.484Z,7.92
2018-11-12T01:21:05.136Z,7.93
2018-11-12T01:22:14.688Z,7.92
2018-11-12T01:23:24.782Z,8.03
2018-11-12T01:24:34.627Z,7.93
2018-11-12T01:25:44.426Z,7.92
2018-11-12T01:26:54.214Z,7.98
2018-11-12T01:28:04.281Z,8.03
2018-11-12T01:29:13.826Z,7.95
2018-11-12T01:30:23.955Z,7.95
2018-11-12T01:31:34.030Z,7.92
2018-11-12T01:32:44.102Z,7.93
2018-11-12T01:33:53.959Z,7.96
2018-11-12T01:35:04.038Z,8.07
2018-11-12T01:36:13.842Z,8.07
2018-11-12T01:37:23.646Z,8.21
2018-11-12T01:38:33.708Z,8.26
2018-11-12T01:39:43.806Z,8.24
2018-11-12T01:40:53.882Z,8.39
2018-11-12T01:42:04.024Z,8.46
2018-11-12T01:43:13.709Z,8.44
2018-11-12T01:44:23.673Z,8.58
2018-11-12T01:45:33.476Z,8.62
2018-11-12T01:46:43.003Z,8.61
2018-11-12T01:47:53.170Z,8.67
2018-11-12T01:49:02.956Z,8.6
2018-11-12T01:50:13.028Z,8.54
2018-11-12T01:51:22.847Z,8.58
2018-11-12T01:52:32.902Z,8.57
2018-11-12T01:53:42.993Z,8.69
2018-11-12T01:54:52.807Z,8.77
2018-11-12T01:56:02.764Z,8.79
2018-11-12T01:57:12.850Z,8.83
2018-11-12T01:58:22.638Z,8.89
2018-11-12T01:59:32.456Z,8.82
2018-11-12T02:00:42.507Z,8.82
2018-11-12T02:01:52.551Z,8.97
2018-11-12T02:03:02.309Z,8.97
2018-11-12T02:04:12.382Z,8.94
2018-11-12T02:05:22.496Z,9.12
2018-11-12T02:06:32.328Z,9.19
2018-11-12T02:07:42.215Z,9.12
2018-11-12T02:08:52.545Z,9.24
2018-11-12T02:10:05.732Z,9.26
2018-11-12T02:11:15.798Z,9.34
2018-11-12T02:12:25.351Z,9.34
2018-11-12T02:13:35.418Z,9.45
2018-11-12T02:14:45.676Z,9.41
2018-11-12T02:15:55.837Z,9.53
2018-11-12T02:17:05.365Z,9.56
2018-11-12T02:18:15.219Z,9.59
2018-11-12T02:19:25.014Z,9.56
2018-11-12T02:20:34.555Z,9.71
2018-11-12T02:21:44.432Z,9.63
2018-11-12T02:22:54.950Z,9.78
2018-11-12T02:24:04.481Z,9.75
2018-11-12T02:25:14.072Z,9.77
2018-11-12T02:26:23.874Z,9.71
2018-11-12T02:27:33.940Z,9.72
2018-11-12T02:28:43.594Z,9.74
2018-11-12T02:29:53.670Z,9.67
2018-11-12T02:31:04.962Z,9.84
2018-11-12T02:32:14.792Z,9.75
2018-11-12T02:33:25.295Z,9.74
2018-11-12T02:34:35.365Z,9.89
2018-11-12T02:35:44.907Z,9.8
2018-11-12T02:36:54.981Z,9.85
2018-11-12T02:38:04.783Z,9.89
2018-11-12T02:39:14.853Z,9.85
2018-11-12T02:40:24.505Z,9.9
2018-11-12T02:41:34.040Z,9.85
2018-11-12T02:42:43.595Z,9.93
2018-11-12T02:43:53.406Z,9.98
2018-11-12T02:45:03.503Z,10.03
2018-11-12T02:46:12.576Z,10.08
2018-11-12T02:47:22.667Z,10.13
2018-11-12T02:48:32.722Z,10.15
2018-11-12T02:49:42.805Z,10.18
2018-11-12T02:50:52.601Z,10.31
2018-11-12T02:52:01.944Z,10.29
2018-11-12T02:53:12.016Z,10.33
2018-11-12T02:54:22.089Z,10.35
2018-11-12T02:55:32.137Z,10.29
2018-11-12T02:56:42.220Z,10.42
2018-11-12T02:57:52.302Z,10.39
2018-11-12T02:59:03.320Z,10.39
2018-11-12T03:00:12.950Z,10.42
2018-11-12T03:01:22.819Z,10.36
2018-11-12T03:02:32.683Z,10.39
2018-11-12T03:34:19.967Z,8.34
2018-11-12T03:35:29.779Z,8.17
2018-11-12T03:36:39.874Z,8.17
2018-11-12T03:37:49.935Z,8.16
2018-11-12T03:38:59.748Z,8.26
2018-11-12T03:40:09.598Z,8.28
2018-11-12T03:41:19.141Z,8.4
2018-11-12T03:42:29.205Z,8.49
2018-11-12T03:43:39.252Z,8.58
2018-11-12T03:44:49.346Z,8.67
2018-11-12T03:45:59.411Z,8.82
2018-11-12T03:47:09.210Z,8.92
2018-11-12T03:48:19.270Z,9.14
2018-11-12T03:49:29.077Z,9.2
2018-11-12T03:50:39.164Z,9.19
2018-11-12T03:51:49.287Z,9.38
2018-11-12T03:52:59.355Z,9.42
2018-11-12T03:54:09.170Z,9.47
2018-11-12T03:55:18.976Z,9.62
2018-11-12T03:56:29.033Z,9.62
2018-11-12T03:57:39.092Z,9.63
2018-11-12T03:58:48.913Z,9.8
2018-11-12T03:59:58.512Z,9.74
2018-11-12T04:01:08.774Z,9.82
2018-11-12T04:02:18.887Z,9.82
2018-11-12T04:03:28.717Z,9.98
2018-11-12T04:04:38.804Z,9.98
2018-11-12T04:05:48.847Z,9.98
2018-11-12T04:06:58.901Z,10.08
2018-11-12T04:08:08.965Z,10.02
2018-11-12T04:09:19.046Z,10.02
2018-11-12T04:10:28.852Z,10.13
2018-11-12T04:11:38.390Z,10.18
2018-11-12T04:12:48.461Z,10.15
2018-11-12T04:13:57.996Z,10.23
2018-11-12T04:15:07.809Z,10.23
2018-11-12T04:16:17.877Z,10.23
2018-11-12T04:17:27.692Z,10.31
2018-11-12T04:18:37.261Z,10.23
2018-11-12T04:19:47.397Z,10.28
2018-11-12T04:20:57.486Z,10.23
2018-11-12T04:22:07.548Z,10.31
2018-11-12T04:23:17.138Z,10.35
2018-11-12T04:24:26.953Z,10.32
2018-11-12T04:25:36.806Z,10.32
2018-11-12T04:26:46.632Z,10.35
2018-11-12T04:27:56.514Z,10.26
2018-11-12T04:29:06.311Z,10.35
2018-11-12T04:30:16.127Z,10.39
2018-11-12T04:31:25.683Z,10.41
2018-11-12T04:32:35.753Z,10.35
2018-11-12T04:33:45.856Z,10.38
2018-11-12T04:34:55.684Z,10.35
2018-11-12T04:36:05.604Z,10.36
2018-11-12T04:37:15.426Z,10.36
2018-11-12T04:38:25.560Z,10.39
2018-11-12T04:39:35.418Z,10.33
2018-11-12T04:40:45.493Z,10.42
2018-11-12T04:41:55.294Z,10.42
2018-11-12T04:43:05.163Z,10.39
2018-11-12T04:44:15.247Z,10.39
2018-11-12T04:45:25.664Z,10.47
2018-11-12T04:46:35.563Z,10.46
2018-11-12T04:47:45.437Z,10.44
2018-11-12T04:48:55.029Z,10.39
2018-11-12T04:50:05.197Z,10.35
2018-11-12T04:51:15.004Z,10.36
2018-11-12T04:52:24.852Z,10.39
2018-11-12T04:53:35.145Z,10.33
2018-11-12T04:54:45.496Z,10.25
2018-11-12T04:55:55.361Z,10.29
2018-11-12T04:57:07.088Z,10.31
2018-11-12T04:58:16.635Z,10.33
2018-11-12T04:59:26.178Z,10.2
2018-11-12T05:00:35.716Z,10.28
2018-11-12T05:01:45.384Z,10.25
2018-11-12T05:02:55.308Z,10.26
2018-11-12T05:04:05.191Z,10.23
2018-11-12T05:05:15.004Z,10.15
2018-11-12T05:06:24.801Z,10.29
2018-11-12T05:07:35.091Z,10.18
2018-11-12T05:08:45.781Z,10.21
2018-11-12T05:09:55.332Z,10.21
2018-11-12T05:11:06.377Z,10.26
2018-11-12T05:12:16.161Z,10.21
2018-11-12T05:13:26.284Z,10.23
2018-11-12T05:14:36.080Z,10.32
2018-11-12T05:15:46.160Z,10.29
2018-11-12T05:16:56.360Z,10.25
2018-11-12T05:18:06.480Z,10.26
2018-11-12T05:19:16.547Z,10.26
2018-11-12T05:20:26.625Z,10.32
2018-11-12T05:21:36.423Z,10.32
2018-11-12T05:22:46.493Z,10.36
2018-11-12T05:23:56.581Z,10.33
2018-11-12T05:25:06.787Z,10.41
2018-11-12T05:26:16.641Z,10.33
2018-11-12T05:27:26.494Z,10.39
2018-11-12T05:28:36.576Z,10.44
2018-11-12T05:29:46.657Z,10.36
2018-11-12T05:30:56.763Z,10.44
2018-11-12T05:32:06.831Z,10.39
2018-11-12T05:33:16.916Z,10.39
2018-11-12T05:34:26.722Z,10.42
2018-11-12T05:35:36.785Z,10.38
2018-11-12T05:36:46.642Z,10.41
2018-11-12T05:37:57.289Z,10.41
2018-11-12T05:39:07.343Z,10.39
2018-11-12T05:40:17.192Z,10.54
2018-11-12T05:41:27.058Z,10.49
2018-11-12T05:42:36.917Z,10.49
2018-11-12T05:43:46.464Z,10.44
2018-11-12T05:44:56.511Z,10.54
2018-11-12T05:46:06.599Z,10.58
2018-11-12T05:47:16.736Z,10.47
2018-11-12T05:48:26.811Z,10.54
2018-11-12T05:49:36.360Z,10.52
2018-11-12T05:50:46.447Z,10.51
2018-11-12T05:51:56.538Z,10.52
2018-11-12T05:53:06.357Z,10.55
2018-11-12T05:54:16.467Z,10.55
2018-11-12T05:55:26.555Z,10.57
2018-11-12T05:56:36.104Z,10.52
2018-11-12T05:57:46.204Z,10.52
2018-11-12T05:58:56.431Z,10.47
2018-11-12T06:00:08.469Z,10.55
2018-11-12T06:01:18.553Z,10.52
2018-11-12T06:02:28.099Z,10.61
2018-11-12T06:03:38.178Z,10.57
2018-11-12T06:04:48.472Z,10.65
2018-11-12T06:05:58.308Z,10.69
2018-11-12T06:07:08.464Z,10.69
2018-11-12T06:08:18.366Z,10.69
2018-11-12T06:09:28.159Z,10.69
2018-11-12T06:10:38.229Z,10.65
2018-11-12T06:11:48.017Z,10.63
2018-11-12T06:12:57.307Z,10.73
2018-11-12T06:14:07.125Z,10.69
2018-11-12T06:15:16.977Z,10.65
2018-11-12T06:16:27.049Z,10.69
2018-11-12T06:17:37.104Z,10.63
2018-11-12T06:18:47.176Z,10.69
2018-11-12T06:19:56.979Z,10.67
2018-11-12T06:21:07.891Z,10.63
2018-11-12T06:22:17.680Z,10.66
2018-11-12T06:23:27.479Z,10.75
2018-11-12T06:24:37.275Z,10.77
2018-11-12T06:25:47.342Z,10.79
2018-11-12T06:26:57.398Z,10.77
2018-11-12T06:28:07.473Z,10.75
2018-11-12T06:29:17.030Z,10.8
2018-11-12T06:30:26.848Z,10.84
2018-11-12T06:31:36.658Z,10.83
2018-11-12T06:32:46.472Z,10.92
2018-11-12T06:33:56.530Z,10.91
2018-11-12T06:35:07.194Z,10.85
2018-11-12T06:36:17.011Z,10.88
2018-11-12T06:37:26.821Z,10.9
2018-11-12T06:38:36.885Z,10.85
2018-11-12T06:39:46.668Z,10.97
2018-11-12T06:40:56.737Z,10.97
2018-11-12T06:42:06.541Z,10.94
2018-11-12T06:43:16.578Z,10.95
2018-11-12T06:44:26.832Z,11.05
2018-11-12T06:45:36.623Z,11.03
2018-11-12T06:46:46.678Z,11
2018-11-12T06:47:56.496Z,11.03
2018-11-12T06:49:07.433Z,11.16
2018-11-12T06:50:17.233Z,11.2
2018-11-12T06:51:27.319Z,11.06
2018-11-12T06:52:37.418Z,11.1
2018-11-12T06:53:47.520Z,11.15
2018-11-12T06:54:57.629Z,11.1
2018-11-12T06:56:07.440Z,11.13
2018-11-12T06:57:17.249Z,11.18
2018-11-12T06:58:27.147Z,11.1
2018-11-12T06:59:37.208Z,11.2
2018-11-12T07:00:47.497Z,11.2
2018-11-12T07:01:56.832Z,11.21
2018-11-12T07:03:06.644Z,11.16
2018-11-12T07:04:16.765Z,11.1
2018-11-12T07:05:26.844Z,11.1
2018-11-12T07:06:37.079Z,11.09
2018-11-12T07:07:47.388Z,11.13
2018-11-12T07:08:57.460Z,11.15
2018-11-12T07:10:08.363Z,11.13
2018-11-12T07:11:18.459Z,11.1
2018-11-12T07:12:28.270Z,11.09
2018-11-12T07:13:38.333Z,11.15
2018-11-12T07:14:48.152Z,11.1
2018-11-12T07:15:58.283Z,11.18
2018-11-12T07:17:08.337Z,11.13
2018-11-12T07:18:18.140Z,11.2
2018-11-12T07:19:28.208Z,11.21
2018-11-12T07:20:37.474Z,11.18
2018-11-12T07:21:47.289Z,11.16
2018-11-12T07:22:57.082Z,11.26
2018-11-12T07:24:06.877Z,11.23
2018-11-12T07:25:17.276Z,11.2
2018-11-12T07:26:27.680Z,11.26
2018-11-12T07:27:37.740Z,11.24
2018-11-12T07:28:47.805Z,11.26
2018-11-12T07:29:57.875Z,11.34
2018-11-12T07:31:09.061Z,11.35
2018-11-12T07:32:19.417Z,11.34
2018-11-12T07:33:29.337Z,11.33
2018-11-12T07:34:39.398Z,11.39
2018-11-12T07:35:49.208Z,11.41
2018-11-12T07:36:58.803Z,11.33
2018-11-12T07:38:08.808Z,11.33
2018-11-12T07:39:18.611Z,11.35
2018-11-12T07:40:28.412Z,11.41
2018-11-12T07:41:38.503Z,11.43
2018-11-12T07:42:48.584Z,11.43
2018-11-12T07:43:58.700Z,11.45
2018-11-12T07:45:08.924Z,11.48
2018-11-12T07:46:18.736Z,11.49
2018-11-12T07:47:28.832Z,11.46
2018-11-12T07:48:38.430Z,11.52
2018-11-12T07:49:48.446Z,11.48
2018-11-12T07:50:58.513Z,11.48
2018-11-12T07:52:08.308Z,11.68
2018-11-12T07:53:18.384Z,11.67
2018-11-12T07:54:28.339Z,11.66
2018-11-12T07:55:38.143Z,11.79
2018-11-12T07:56:48.206Z,11.75
2018-11-12T07:57:57.999Z,11.71
2018-11-12T07:59:08.065Z,11.79
2018-11-12T08:00:17.605Z,11.82
2018-11-12T08:01:27.456Z,11.78
2018-11-12T08:02:37.053Z,11.75
2018-11-12T08:03:47.501Z,11.78
2018-11-12T08:04:57.734Z,11.86
2018-11-12T08:06:07.543Z,11.85
2018-11-12T08:07:17.407Z,11.86
2018-11-12T08:08:26.738Z,11.84
2018-11-12T08:09:36.940Z,11.94
2018-11-12T08:10:46.982Z,11.89
2018-11-12T08:11:57.243Z,11.86
2018-11-12T08:13:07.320Z,11.91
2018-11-12T08:14:17.492Z,11.94
2018-11-12T08:15:27.613Z,11.94
2018-11-12T08:16:37.744Z,11.95
2018-11-12T08:17:47.797Z,11.97
2018-11-12T08:18:57.759Z,12.05
2018-11-12T08:20:08.185Z,11.88
2018-11-12T08:21:18.259Z,11.94
2018-11-12T08:22:28.316Z,12.03
2018-11-12T08:23:38.452Z,12.11
2018-11-12T08:24:48.677Z,12.08
2018-11-12T08:25:58.885Z,12.16
2018-11-12T08:27:09.006Z,12.11
2018-11-12T08:28:18.932Z,12.22
2018-11-12T08:29:28.220Z,12.26
2018-11-12T08:30:37.841Z,12.2
2018-11-12T08:31:47.899Z,12.25
2018-11-12T08:32:58.353Z,12.31
2018-11-12T08:34:08.589Z,12.26
2018-11-12T08:35:18.392Z,12.22
2018-11-12T08:36:28.729Z,12.26
2018-11-12T08:37:38.825Z,12.2
2018-11-12T08:38:48.688Z,12.2
2018-11-12T08:39:58.247Z,12.25
2018-11-12T08:41:08.909Z,12.2
2018-11-12T08:42:18.704Z,12.26
2018-11-12T08:43:28.241Z,12.36
2018-11-12T08:44:38.306Z,12.25
2018-11-12T08:45:48.376Z,12.34
2018-11-12T08:46:57.983Z,12.31
2018-11-12T08:48:10.137Z,12.34
2018-11-12T08:49:20.050Z,12.29
2018-11-12T08:50:29.395Z,12.4
2018-11-12T08:51:39.215Z,12.36
2018-11-12T08:52:49.039Z,12.34
2018-11-12T08:53:59.109Z,12.28
2018-11-12T08:55:09.598Z,12.36
2018-11-12T08:56:19.984Z,12.28
2018-11-12T08:57:29.541Z,12.34
2018-11-12T08:58:39.617Z,12.34
2018-11-12T08:59:49.337Z,12.33
2018-11-12T09:00:59.991Z,12.37
2018-11-12T09:02:09.829Z,12.41
2018-11-12T09:03:19.896Z,12.38
2018-11-12T09:04:29.969Z,12.43
2018-11-12T09:05:40.261Z,12.38
2018-11-12T09:06:50.220Z,12.36
2018-11-12T09:08:03.361Z,12.41
2018-11-12T09:09:13.349Z,12.44
2018-11-12T09:10:23.554Z,12.51
2018-11-12T09:11:33.373Z,12.58
2018-11-12T09:12:43.427Z,12.58
2018-11-12T09:13:52.996Z,12.59
2018-11-12T09:15:03.104Z,12.59
2018-11-12T09:16:12.405Z,12.56
2018-11-12T09:17:21.969Z,12.59
2018-11-12T09:18:31.780Z,12.59
2018-11-12T09:19:41.861Z,12.53
2018-11-12T09:20:51.704Z,12.69
2018-11-12T09:22:01.778Z,12.61
2018-11-12T09:23:11.096Z,12.62
2018-11-12T09:24:21.344Z,12.61
2018-11-12T09:25:31.420Z,12.7
2018-11-12T09:26:40.989Z,12.77
2018-11-12T09:27:50.850Z,12.78
2018-11-12T09:29:01.249Z,12.77
2018-11-12T09:30:11.099Z,12.69
2018-11-12T09:31:26.562Z,12.61
2018-11-12T09:32:35.667Z,12.53
2018-11-12T09:33:46.769Z,12.53
2018-11-12T09:34:56.893Z,12.52
2018-11-12T09:36:08.057Z,12.56
2018-11-12T09:37:18.271Z,12.74
2018-11-12T09:38:28.832Z,12.84
2018-11-12T09:39:38.884Z,12.81
2018-11-12T09:40:49.195Z,12.88
2018-11-12T09:41:58.997Z,12.96
2018-11-12T09:43:08.667Z,12.99
2018-11-12T09:44:18.939Z,12.96
2018-11-12T09:45:29.329Z,13.07
2018-11-12T09:46:39.407Z,13.06
2018-11-12T09:47:49.683Z,12.99
2018-11-12T09:49:00.326Z,13.02
2018-11-12T09:50:10.578Z,13.06
2018-11-12T09:51:20.385Z,13.14
2018-11-12T09:52:30.190Z,13.16
2018-11-12T09:53:40.425Z,13.02
2018-11-12T09:54:50.616Z,13.06
2018-11-12T09:56:00.755Z,12.98
2018-11-12T09:57:10.553Z,12.91
2018-11-12T09:58:20.384Z,13.06
2018-11-12T09:59:30.951Z,12.99
2018-11-12T10:00:42.023Z,13.03
2018-11-12T10:01:54.760Z,13.03
2018-11-12T10:03:09.653Z,13.1
2018-11-12T10:04:28.016Z,13.16
2018-11-12T10:05:47.776Z,13.2
2018-11-12T10:07:07.655Z,13.24
2018-11-12T10:08:32.096Z,13.24
2018-11-12T10:09:57.101Z,13.28
2018-11-12T10:11:25.314Z,13.24
2018-11-12T10:12:51.009Z,13.25
2018-11-12T10:14:09.645Z,13.28
2018-11-12T10:15:42.343Z,13.29
2018-11-12T10:17:15.362Z,13.24
2018-11-12T10:18:38.929Z,13.37
2018-11-12T10:19:49.220Z,13.31
2018-11-12T10:20:59.342Z,13.37
2018-11-12T10:22:09.418Z,13.5
2018-11-12T10:23:19.539Z,13.55
2018-11-12T10:24:29.358Z,13.5
2018-11-12T10:25:38.968Z,13.58
2018-11-12T10:26:48.790Z,13.62
2018-11-12T10:27:58.851Z,13.58
2018-11-12T10:29:09.553Z,13.6
2018-11-12T10:30:19.618Z,13.63
2018-11-12T10:31:29.694Z,13.57
2018-11-12T10:32:39.532Z,13.58
2018-11-12T10:33:49.661Z,13.65
2018-11-12T10:34:59.550Z,13.65
2018-11-12T10:36:09.424Z,13.65
2018-11-12T10:37:19.257Z,13.65
2018-11-12T10:38:29.369Z,13.65
2018-11-12T10:39:38.975Z,13.72
2018-11-12T10:40:49.322Z,13.72
2018-11-12T10:41:58.970Z,13.72
2018-11-12T10:43:09.046Z,13.73
2018-11-12T10:44:18.852Z,13.79
2018-11-12T10:45:28.663Z,13.86
2018-11-12T10:46:38.467Z,13.84
2018-11-12T10:47:48.709Z,13.91
2018-11-12T10:48:58.789Z,13.9
2018-11-12T10:50:08.606Z,13.86
2018-11-12T10:51:18.953Z,13.62
2018-11-12T10:52:29.118Z,13.68
2018-11-12T10:53:49.774Z,13.57
2018-11-12T10:55:10.590Z,13.54
2018-11-12T10:56:21.450Z,13.55
2018-11-12T10:57:31.265Z,13.65
2018-11-12T10:58:41.296Z,13.69
2018-11-12T10:59:51.836Z,13.75
2018-11-12T11:01:01.354Z,13.76
2018-11-12T11:02:11.458Z,13.83
2018-11-12T11:03:21.526Z,13.9
2018-11-12T11:04:31.590Z,13.93
2018-11-12T11:05:41.673Z,13.9
2018-11-12T11:06:51.768Z,13.87
2018-11-12T11:08:03.014Z,13.88
2018-11-12T11:09:13.070Z,13.95
2018-11-12T11:10:23.152Z,13.97
2018-11-12T11:11:32.999Z,13.95
2018-11-12T11:12:42.805Z,14.09
2018-11-12T11:13:52.672Z,14.13
2018-11-12T11:15:03.010Z,14.15
2018-11-12T11:16:12.847Z,14.23
2018-11-12T11:17:22.687Z,14.36
2018-11-12T11:18:32.515Z,14.44
2018-11-12T11:19:42.417Z,14.42
2018-11-12T11:20:52.252Z,14.41
2018-11-12T11:22:01.854Z,14.41
2018-11-12T11:23:11.967Z,14.38
2018-11-12T11:24:22.066Z,14.34
2018-11-12T11:25:32.190Z,14.31
2018-11-12T11:26:42.261Z,14.36
2018-11-12T11:27:52.746Z,14.36
2018-11-12T11:29:03.782Z,14.28
2018-11-12T11:30:13.443Z,14.41
2018-11-12T11:31:23.264Z,14.41
2018-11-12T11:32:32.853Z,14.46
2018-11-12T11:33:42.397Z,14.48
2018-11-12T11:34:51.937Z,14.46
2018-11-12T11:36:01.205Z,14.53
2018-11-12T11:37:10.489Z,14.49
2018-11-12T11:38:20.745Z,14.52
2018-11-12T11:39:30.863Z,14.49
2018-11-12T11:40:40.758Z,14.57
2018-11-12T11:41:51.155Z,14.6
2018-11-12T11:43:00.688Z,14.6
2018-11-12T11:44:10.509Z,14.69
2018-11-12T11:45:20.367Z,14.83
2018-11-12T11:46:30.472Z,14.9
2018-11-12T11:47:40.749Z,15.04
2018-11-12T11:48:51.858Z,15.04
2018-11-12T11:50:03.184Z,15.04
2018-11-12T11:51:13.216Z,15.02
2018-11-12T11:52:22.758Z,15.15
2018-11-12T11:53:32.834Z,15.2
2018-11-12T11:54:42.361Z,15.15
2018-11-12T11:55:52.173Z,15.37
2018-11-12T11:57:02.026Z,15.33
2018-11-12T11:58:12.428Z,15.33
2018-11-12T11:59:22.308Z,15.41
2018-11-12T12:00:32.390Z,15.43
2018-11-12T12:01:42.315Z,15.47
2018-11-12T12:02:53.037Z,15.43
2018-11-12T12:04:03.203Z,15.53
2018-11-12T12:05:13.014Z,15.62
2018-11-12T12:06:23.087Z,15.58
2018-11-12T12:07:32.877Z,15.6
2018-11-12T12:08:43.143Z,15.65
2018-11-12T12:09:53.662Z,15.67
2018-11-12T12:11:05.299Z,15.71
2018-11-12T12:12:15.381Z,15.75
2018-11-12T12:13:25.344Z,15.8
2018-11-12T12:14:35.200Z,15.84
2018-11-12T12:15:44.762Z,15.83
2018-11-12T12:16:54.838Z,15.84
2018-11-12T12:18:04.910Z,15.89
2018-11-12T12:19:14.899Z,15.98
2018-11-12T12:20:25.049Z,15.98
2018-11-12T12:21:34.846Z,16.04
2018-11-12T12:22:44.925Z,16.04
2018-11-12T12:23:54.484Z,16
2018-11-12T12:25:05.057Z,15.96
2018-11-12T12:26:15.115Z,16.08
2018-11-12T12:27:25.177Z,15.98
2018-11-12T12:28:34.991Z,15.96
2018-11-12T12:29:44.563Z,15.88
2018-11-12T12:30:54.619Z,15.78
2018-11-12T12:32:04.696Z,15.78
2018-11-12T12:33:14.792Z,15.73
2018-11-12T12:34:24.392Z,15.81
2018-11-12T12:35:34.612Z,15.74
2018-11-12T12:36:44.864Z,15.8
2018-11-12T12:37:55.129Z,15.83
2018-11-12T12:39:04.681Z,15.62
2018-11-12T12:40:14.225Z,15.58
2018-11-12T12:41:24.021Z,15.52
2018-11-12T12:42:34.140Z,15.49
2018-11-12T12:43:43.704Z,15.34
2018-11-12T12:44:54.250Z,15.35
2018-11-12T12:46:04.780Z,15.3
2018-11-12T12:47:14.395Z,15.19
2018-11-12T12:48:24.218Z,15.1
2018-11-12T12:49:34.637Z,15.13
2018-11-12T12:50:44.328Z,15.08
2018-11-12T12:51:54.164Z,15.08
2018-11-12T12:53:04.239Z,15.13
2018-11-12T12:54:14.064Z,15.15
2018-11-12T12:55:24.540Z,15.18
2018-11-12T12:56:34.886Z,15.2
2018-11-12T12:57:44.717Z,15.3
2018-11-12T12:58:54.325Z,15.25
2018-11-12T13:00:04.845Z,15.27
2018-11-12T13:01:14.769Z,15.33
2018-11-12T13:02:24.897Z,15.33
2018-11-12T13:03:35.006Z,15.3
2018-11-12T13:04:44.968Z,15.35
2018-11-12T13:05:58.827Z,15.26
2018-11-12T13:07:08.383Z,15.33
2018-11-12T13:08:18.579Z,15.33
2018-11-12T13:09:28.437Z,15.2
2018-11-12T13:10:38.510Z,15.33
2018-11-12T13:11:48.615Z,15.25
2018-11-12T13:12:57.938Z,15.25
2018-11-12T13:14:07.881Z,15.25
2018-11-12T13:15:18.578Z,15.26
2018-11-12T13:16:28.408Z,15.26
2018-11-12T13:17:38.229Z,15.27
2018-11-12T13:18:48.351Z,15.2
2018-11-12T13:19:58.792Z,15.27
2018-11-12T13:21:08.966Z,15.34
2018-11-12T13:22:19.445Z,15.35
2018-11-12T13:23:29.251Z,15.3
2018-11-12T13:24:39.341Z,15.3
2018-11-12T13:25:48.900Z,15.19
2018-11-12T13:26:58.762Z,15.27
2018-11-12T13:28:08.874Z,15.27
2018-11-12T13:29:18.728Z,15.3
2018-11-12T13:30:28.366Z,15.19
2018-11-12T13:31:38.490Z,15.31
2018-11-12T13:32:48.555Z,15.33
2018-11-12T13:33:58.631Z,15.27
2018-11-12T13:35:08.715Z,15.3
2018-11-12T13:36:18.837Z,15.18
2018-11-12T13:37:28.930Z,15.22
2018-11-12T13:38:38.227Z,15.18
2018-11-12T13:39:48.021Z,15.19
2018-11-12T13:40:57.840Z,15.23
2018-11-12T13:42:08.379Z,15.3
2018-11-12T13:43:18.226Z,15.34
2018-11-12T13:44:28.037Z,15.2
2018-11-12T13:45:37.881Z,15.19
2018-11-12T13:46:47.901Z,15.22
2018-11-12T13:47:58.165Z,15.16
2018-11-12T13:49:07.715Z,15.08
2018-11-12T13:50:17.793Z,15.15
2018-11-12T13:51:27.386Z,15.18
2018-11-12T13:52:37.520Z,15.13
2018-11-12T13:53:47.653Z,15.1
2018-11-12T13:54:57.241Z,15.07
2018-11-12T13:56:07.057Z,15.12
2018-11-12T13:57:16.873Z,15.01
2018-11-12T13:58:26.439Z,15.01
2018-11-12T13:59:36.559Z,14.97
2018-11-12T14:00:46.834Z,14.93
2018-11-12T14:01:56.943Z,14.95
2018-11-12T14:03:06.754Z,14.89
2018-11-12T14:04:16.822Z,14.9
2018-11-12T14:05:26.686Z,14.93
2018-11-12T14:06:36.304Z,14.94
2018-11-12T14:07:46.110Z,14.97
2018-11-12T14:08:55.898Z,14.86
2018-11-12T14:10:09.119Z,14.89
2018-11-12T14:11:18.795Z,14.87
2018-11-12T14:12:28.877Z,14.98
2018-11-12T14:13:38.715Z,14.86
2018-11-12T14:14:48.540Z,14.94
2018-11-12T14:15:58.386Z,14.87
2018-11-12T14:17:08.690Z,14.86
2018-11-12T14:18:18.511Z,14.85
2018-11-12T14:19:28.354Z,14.77
2018-11-12T14:20:38.573Z,14.75
2018-11-12T14:21:49.689Z,14.79
2018-11-12T14:22:59.779Z,14.77
2018-11-12T14:24:09.881Z,14.7
2018-11-12T14:25:19.949Z,14.66
2018-11-12T14:26:29.780Z,14.63
2018-11-12T14:37:15.121Z,14.59
2018-11-12T14:38:25.181Z,14.67
2018-11-12T14:39:34.717Z,14.51
2018-11-12T14:40:44.231Z,14.53
2018-11-12T14:41:54.099Z,14.51
2018-11-12T14:43:05.184Z,14.46
2018-11-12T14:44:14.726Z,14.52
2018-11-12T14:45:25.167Z,14.53
2018-11-12T14:46:35.554Z,14.59
2018-11-12T14:47:45.461Z,14.57
2018-11-12T14:48:55.524Z,14.59
2018-11-12T14:50:07.821Z,14.6
2018-11-12T14:51:18.101Z,14.67
2018-11-12T14:52:27.951Z,14.52
2018-11-12T14:53:38.020Z,14.53
2018-11-12T14:54:47.868Z,14.49
2018-11-12T14:55:58.027Z,14.52
2018-11-12T14:57:08.130Z,14.46
2018-11-12T14:58:17.966Z,14.51
2018-11-12T14:59:28.069Z,14.42
2018-11-12T15:00:37.888Z,14.41
2018-11-12T15:01:48.469Z,14.42
2018-11-12T15:02:58.588Z,14.3
2018-11-12T15:04:08.397Z,14.34
2018-11-12T15:05:17.786Z,14.3
2018-11-12T15:06:27.873Z,14.36
2018-11-12T15:07:37.458Z,14.39
2018-11-12T15:08:47.448Z,14.34
2018-11-12T15:09:57.463Z,14.27
2018-11-12T15:11:07.548Z,14.24
2018-11-12T15:12:17.378Z,14.27
2018-11-12T15:13:27.225Z,14.23
2018-11-12T15:14:37.449Z,14.19
2018-11-12T15:15:47.797Z,14.13
2018-11-12T15:16:57.610Z,14.09
2018-11-12T15:18:07.713Z,13.97
2018-11-12T15:19:17.535Z,13.94
2018-11-12T15:20:27.628Z,13.94
2018-11-12T15:21:37.721Z,13.84
2018-11-12T15:22:47.785Z,13.73
2018-11-12T15:23:58.225Z,13.72
2018-11-12T15:25:08.315Z,13.58
2018-11-12T15:26:17.851Z,13.53
2018-11-12T15:27:27.928Z,13.51
2018-11-12T15:28:38.101Z,13.53
2018-11-12T15:29:47.656Z,13.48
2018-11-12T15:30:57.729Z,13.36
2018-11-12T15:32:07.819Z,13.36
2018-11-12T15:33:17.931Z,13.31
2018-11-12T15:34:27.990Z,13.25
2018-11-12T15:35:37.556Z,13.31
2018-11-12T15:36:47.622Z,13.25
2018-11-12T15:37:57.750Z,13.31
2018-11-12T15:39:08.033Z,13.25
2018-11-12T15:40:17.926Z,13.28
2018-11-12T15:41:27.520Z,13.31
2018-11-12T15:42:37.612Z,13.25
2018-11-12T15:43:47.682Z,13.25
2018-11-12T15:44:57.773Z,13.24
2018-11-12T15:46:07.341Z,13.2
2018-11-12T15:47:17.152Z,13.17
2018-11-12T15:48:26.967Z,13.17
2018-11-12T15:49:36.801Z,13.11
2018-11-12T15:50:47.068Z,13.11
2018-11-12T15:51:56.044Z,13.13
2018-11-12T15:53:06.643Z,13.16
2018-11-12T15:54:16.467Z,13.16